sensor_id;sensor_type;location;lat;lon;timestamp;P1;durP1;ratioP1;P2;durP2;ratioP2
38853;SDS011;24606;51.992;4.198;2022-10-26T00:02:29;6.60;;;1.88;;
38853;SDS011;24606;51.992;4.198;2022-10-26T00:07:31;3.22;;;1.33;;
38853;SDS011;24606;51.992;4.198;2022-10-26T00:12:34;6.15;;;1.33;;
38853;SDS011;24606;51.992;4.198;2022-10-26T00:17:36;2.55;;;1.30;;
38853;SDS011;24606;51.992;4.198;2022-10-26T00:22:38;3.40;;;1.52;;
38853;SDS011;24606;51.992;4.198;2022-10-26T00:27:41;2.28;;;1.23;;
38853;SDS011;24606;51.992;4.198;2022-10-26T00:32:43;3.83;;;1.58;;
38853;SDS011;24606;51.992;4.198;2022-10-26T00:37:45;1.83;;;0.98;;
38853;SDS011;24606;51.992;4.198;2022-10-26T00:42:48;3.20;;;1.30;;
38853;SDS011;24606;51.992;4.198;2022-10-26T00:47:51;3.53;;;1.27;;
38853;SDS011;24606;51.992;4.198;2022-10-26T00:52:56;2.67;;;1.58;;
38853;SDS011;24606;51.992;4.198;2022-10-26T00:58:04;1.40;;;1.00;;
38853;SDS011;24606;51.992;4.198;2022-10-26T01:03:09;1.92;;;1.08;;
38853;SDS011;24606;51.992;4.198;2022-10-26T01:08:11;3.05;;;1.15;;
38853;SDS011;24606;51.992;4.198;2022-10-26T01:13:17;1.75;;;0.90;;
38853;SDS011;24606;51.992;4.198;2022-10-26T01:18:20;3.30;;;1.20;;
38853;SDS011;24606;51.992;4.198;2022-10-26T01:23:30;3.03;;;1.05;;
38853;SDS011;24606;51.992;4.198;2022-10-26T01:28:45;1.83;;;1.13;;
38853;SDS011;24606;51.992;4.198;2022-10-26T01:34:06;1.85;;;1.00;;
38853;SDS011;24606;51.992;4.198;2022-10-26T01:39:13;2.70;;;1.10;;
38853;SDS011;24606;51.992;4.198;2022-10-26T01:44:20;2.35;;;1.20;;
38853;SDS011;24606;51.992;4.198;2022-10-26T01:49:27;5.45;;;1.27;;
38853;SDS011;24606;51.992;4.198;2022-10-26T01:54:33;4.78;;;1.10;;
38853;SDS011;24606;51.992;4.198;2022-10-26T01:59:39;1.73;;;1.10;;
38853;SDS011;24606;51.992;4.198;2022-10-26T02:10:02;2.60;;;1.00;;
38853;SDS011;24606;51.992;4.198;2022-10-26T02:15:12;1.70;;;1.17;;
38853;SDS011;24606;51.992;4.198;2022-10-26T02:20:20;1.48;;;1.15;;
38853;SDS011;24606;51.992;4.198;2022-10-26T02:25:26;2.13;;;1.00;;
38853;SDS011;24606;51.992;4.198;2022-10-26T02:30:31;2.13;;;0.93;;
38853;SDS011;24606;51.992;4.198;2022-10-26T02:35:36;1.67;;;1.13;;
38853;SDS011;24606;51.992;4.198;2022-10-26T02:40:40;1.15;;;0.85;;
38853;SDS011;24606;51.992;4.198;2022-10-26T02:45:43;2.22;;;0.80;;
38853;SDS011;24606;51.992;4.198;2022-10-26T02:50:52;2.17;;;1.20;;
38853;SDS011;24606;51.992;4.198;2022-10-26T02:56:03;1.92;;;0.63;;
38853;SDS011;24606;51.992;4.198;2022-10-26T03:01:09;1.92;;;0.95;;
38853;SDS011;24606;51.992;4.198;2022-10-26T03:06:13;2.15;;;1.10;;
38853;SDS011;24606;51.992;4.198;2022-10-26T03:11:21;1.83;;;0.90;;
38853;SDS011;24606;51.992;4.198;2022-10-26T03:16:23;2.50;;;1.10;;
38853;SDS011;24606;51.992;4.198;2022-10-26T03:21:26;1.40;;;0.88;;
38853;SDS011;24606;51.992;4.198;2022-10-26T03:26:28;2.38;;;0.82;;
38853;SDS011;24606;51.992;4.198;2022-10-26T03:31:30;2.30;;;0.93;;
38853;SDS011;24606;51.992;4.198;2022-10-26T03:36:33;2.20;;;0.93;;
38853;SDS011;24606;51.992;4.198;2022-10-26T03:41:35;2.45;;;0.82;;
38853;SDS011;24606;51.992;4.198;2022-10-26T03:46:37;3.30;;;0.90;;
38853;SDS011;24606;51.992;4.198;2022-10-26T03:51:40;1.08;;;0.63;;
38853;SDS011;24606;51.992;4.198;2022-10-26T03:56:42;0.90;;;0.80;;
38853;SDS011;24606;51.992;4.198;2022-10-26T04:01:44;2.45;;;1.02;;
38853;SDS011;24606;51.992;4.198;2022-10-26T04:06:47;3.15;;;1.30;;
38853;SDS011;24606;51.992;4.198;2022-10-26T04:11:49;1.90;;;0.82;;
38853;SDS011;24606;51.992;4.198;2022-10-26T04:16:51;1.40;;;0.88;;
38853;SDS011;24606;51.992;4.198;2022-10-26T04:21:54;2.85;;;1.02;;
38853;SDS011;24606;51.992;4.198;2022-10-26T04:26:56;1.75;;;1.00;;
38853;SDS011;24606;51.992;4.198;2022-10-26T04:31:57;3.58;;;1.02;;
38853;SDS011;24606;51.992;4.198;2022-10-26T04:37:01;2.10;;;1.10;;
38853;SDS011;24606;51.992;4.198;2022-10-26T04:42:02;2.25;;;0.82;;
38853;SDS011;24606;51.992;4.198;2022-10-26T04:47:04;2.05;;;0.90;;
38853;SDS011;24606;51.992;4.198;2022-10-26T04:52:08;3.40;;;1.63;;
38853;SDS011;24606;51.992;4.198;2022-10-26T04:57:09;1.60;;;1.10;;
38853;SDS011;24606;51.992;4.198;2022-10-26T05:02:11;1.85;;;0.93;;
38853;SDS011;24606;51.992;4.198;2022-10-26T05:07:14;0.98;;;0.70;;
38853;SDS011;24606;51.992;4.198;2022-10-26T05:12:16;2.40;;;1.10;;
38853;SDS011;24606;51.992;4.198;2022-10-26T05:17:18;1.77;;;0.90;;
38853;SDS011;24606;51.992;4.198;2022-10-26T05:22:21;0.82;;;0.82;;
38853;SDS011;24606;51.992;4.198;2022-10-26T05:27:23;2.17;;;0.90;;
38853;SDS011;24606;51.992;4.198;2022-10-26T05:32:25;3.67;;;0.88;;
38853;SDS011;24606;51.992;4.198;2022-10-26T05:37:28;1.33;;;0.98;;
38853;SDS011;24606;51.992;4.198;2022-10-26T05:42:30;1.80;;;0.88;;
38853;SDS011;24606;51.992;4.198;2022-10-26T05:47:32;1.13;;;0.80;;
38853;SDS011;24606;51.992;4.198;2022-10-26T05:52:40;1.65;;;0.82;;
38853;SDS011;24606;51.992;4.198;2022-10-26T05:57:42;2.28;;;0.90;;
38853;SDS011;24606;51.992;4.198;2022-10-26T06:02:52;0.80;;;0.70;;
38853;SDS011;24606;51.992;4.198;2022-10-26T06:08:07;1.50;;;0.80;;
38853;SDS011;24606;51.992;4.198;2022-10-26T06:13:11;2.08;;;0.90;;
38853;SDS011;24606;51.992;4.198;2022-10-26T06:18:15;1.50;;;0.75;;
38853;SDS011;24606;51.992;4.198;2022-10-26T06:23:29;2.17;;;1.10;;
38853;SDS011;24606;51.992;4.198;2022-10-26T06:28:41;1.90;;;1.02;;
38853;SDS011;24606;51.992;4.198;2022-10-26T06:33:47;1.90;;;0.90;;
38853;SDS011;24606;51.992;4.198;2022-10-26T06:38:51;1.80;;;1.00;;
38853;SDS011;24606;51.992;4.198;2022-10-26T06:43:55;1.83;;;0.90;;
38853;SDS011;24606;51.992;4.198;2022-10-26T06:48:59;1.45;;;0.90;;
38853;SDS011;24606;51.992;4.198;2022-10-26T06:54:17;2.53;;;0.90;;
38853;SDS011;24606;51.992;4.198;2022-10-26T06:59:28;2.20;;;0.80;;
38853;SDS011;24606;51.992;4.198;2022-10-26T07:04:36;2.03;;;0.93;;
38853;SDS011;24606;51.992;4.198;2022-10-26T07:09:40;1.55;;;0.80;;
38853;SDS011;24606;51.992;4.198;2022-10-26T07:14:42;2.65;;;0.98;;
38853;SDS011;24606;51.992;4.198;2022-10-26T07:19:43;2.13;;;0.88;;
38853;SDS011;24606;51.992;4.198;2022-10-26T07:24:47;3.70;;;0.80;;
38853;SDS011;24606;51.992;4.198;2022-10-26T07:29:50;2.88;;;0.85;;
38853;SDS011;24606;51.992;4.198;2022-10-26T07:34:52;1.25;;;0.80;;
38853;SDS011;24606;51.992;4.198;2022-10-26T07:39:56;4.65;;;1.50;;
38853;SDS011;24606;51.992;4.198;2022-10-26T07:44:58;1.88;;;1.10;;
38853;SDS011;24606;51.992;4.198;2022-10-26T07:50:00;1.50;;;0.85;;
38853;SDS011;24606;51.992;4.198;2022-10-26T07:55:04;6.00;;;1.10;;
38853;SDS011;24606;51.992;4.198;2022-10-26T08:00:07;1.92;;;0.80;;
38853;SDS011;24606;51.992;4.198;2022-10-26T08:05:10;2.00;;;0.77;;
38853;SDS011;24606;51.992;4.198;2022-10-26T08:10:13;4.50;;;0.93;;
38853;SDS011;24606;51.992;4.198;2022-10-26T08:15:16;1.38;;;0.73;;
38853;SDS011;24606;51.992;4.198;2022-10-26T08:20:17;1.50;;;0.80;;
38853;SDS011;24606;51.992;4.198;2022-10-26T08:25:21;7.93;;;1.55;;
38853;SDS011;24606;51.992;4.198;2022-10-26T08:30:23;6.90;;;1.50;;
38853;SDS011;24606;51.992;4.198;2022-10-26T08:35:25;3.20;;;1.10;;
38853;SDS011;24606;51.992;4.198;2022-10-26T08:40:29;5.53;;;1.98;;
38853;SDS011;24606;51.992;4.198;2022-10-26T08:45:32;4.53;;;1.20;;
38853;SDS011;24606;51.992;4.198;2022-10-26T08:50:39;2.58;;;1.20;;
38853;SDS011;24606;51.992;4.198;2022-10-26T08:55:47;2.25;;;1.27;;
38853;SDS011;24606;51.992;4.198;2022-10-26T09:00:54;5.85;;;1.50;;
38853;SDS011;24606;51.992;4.198;2022-10-26T09:06:01;12.65;;;1.88;;
38853;SDS011;24606;51.992;4.198;2022-10-26T09:11:16;4.07;;;1.95;;
38853;SDS011;24606;51.992;4.198;2022-10-26T09:16:29;6.38;;;1.48;;
38853;SDS011;24606;51.992;4.198;2022-10-26T09:21:42;4.93;;;2.00;;
38853;SDS011;24606;51.992;4.198;2022-10-26T09:26:53;2.15;;;1.10;;
38853;SDS011;24606;51.992;4.198;2022-10-26T09:31:56;6.07;;;1.58;;
38853;SDS011;24606;51.992;4.198;2022-10-26T09:37:01;5.50;;;1.48;;
38853;SDS011;24606;51.992;4.198;2022-10-26T09:42:16;5.10;;;1.60;;
38853;SDS011;24606;51.992;4.198;2022-10-26T09:47:26;4.70;;;1.92;;
38853;SDS011;24606;51.992;4.198;2022-10-26T09:52:32;7.22;;;1.88;;
38853;SDS011;24606;51.992;4.198;2022-10-26T09:57:35;7.90;;;1.45;;
38853;SDS011;24606;51.992;4.198;2022-10-26T10:02:40;5.63;;;2.15;;
38853;SDS011;24606;51.992;4.198;2022-10-26T10:07:43;3.97;;;1.75;;
38853;SDS011;24606;51.992;4.198;2022-10-26T10:12:47;4.15;;;1.25;;
38853;SDS011;24606;51.992;4.198;2022-10-26T10:17:52;2.97;;;1.60;;
38853;SDS011;24606;51.992;4.198;2022-10-26T10:22:56;1.88;;;0.88;;
38853;SDS011;24606;51.992;4.198;2022-10-26T10:28:00;5.25;;;1.42;;
38853;SDS011;24606;51.992;4.198;2022-10-26T10:33:04;3.72;;;1.05;;
38853;SDS011;24606;51.992;4.198;2022-10-26T10:38:11;4.35;;;1.25;;
38853;SDS011;24606;51.992;4.198;2022-10-26T10:43:18;3.55;;;1.60;;
38853;SDS011;24606;51.992;4.198;2022-10-26T10:48:21;7.10;;;2.03;;
38853;SDS011;24606;51.992;4.198;2022-10-26T10:53:34;5.40;;;1.10;;
38853;SDS011;24606;51.992;4.198;2022-10-26T10:58:45;5.28;;;1.70;;
38853;SDS011;24606;51.992;4.198;2022-10-26T11:04:10;11.93;;;1.75;;
38853;SDS011;24606;51.992;4.198;2022-10-26T11:09:25;10.52;;;2.35;;
38853;SDS011;24606;51.992;4.198;2022-10-26T11:14:31;8.27;;;2.47;;
38853;SDS011;24606;51.992;4.198;2022-10-26T11:19:36;8.30;;;2.03;;
38853;SDS011;24606;51.992;4.198;2022-10-26T11:24:46;8.38;;;1.55;;
38853;SDS011;24606;51.992;4.198;2022-10-26T11:29:52;7.28;;;1.83;;
38853;SDS011;24606;51.992;4.198;2022-10-26T11:35:02;4.50;;;1.80;;
38853;SDS011;24606;51.992;4.198;2022-10-26T11:40:13;5.47;;;1.45;;
38853;SDS011;24606;51.992;4.198;2022-10-26T11:45:24;11.35;;;1.45;;
38853;SDS011;24606;51.992;4.198;2022-10-26T11:50:31;5.30;;;1.27;;
38853;SDS011;24606;51.992;4.198;2022-10-26T11:55:37;11.75;;;2.60;;
38853;SDS011;24606;51.992;4.198;2022-10-26T12:00:44;7.75;;;1.40;;
38853;SDS011;24606;51.992;4.198;2022-10-26T12:05:50;13.82;;;1.45;;
38853;SDS011;24606;51.992;4.198;2022-10-26T12:10:55;7.43;;;1.50;;
38853;SDS011;24606;51.992;4.198;2022-10-26T12:16:12;5.00;;;1.10;;
38853;SDS011;24606;51.992;4.198;2022-10-26T12:21:21;5.95;;;1.48;;
38853;SDS011;24606;51.992;4.198;2022-10-26T12:31:54;4.93;;;1.35;;
38853;SDS011;24606;51.992;4.198;2022-10-26T12:37:09;6.60;;;1.92;;
38853;SDS011;24606;51.992;4.198;2022-10-26T12:42:27;4.03;;;1.13;;
38853;SDS011;24606;51.992;4.198;2022-10-26T12:53:04;7.88;;;1.20;;
38853;SDS011;24606;51.992;4.198;2022-10-26T12:58:26;3.90;;;1.10;;
38853;SDS011;24606;51.992;4.198;2022-10-26T13:03:51;2.35;;;1.15;;
38853;SDS011;24606;51.992;4.198;2022-10-26T13:09:06;4.70;;;1.40;;
38853;SDS011;24606;51.992;4.198;2022-10-26T13:14:18;4.97;;;1.75;;
38853;SDS011;24606;51.992;4.198;2022-10-26T13:19:25;8.00;;;1.40;;
38853;SDS011;24606;51.992;4.198;2022-10-26T13:24:31;8.15;;;1.83;;
38853;SDS011;24606;51.992;4.198;2022-10-26T13:30:09;7.22;;;1.50;;
38853;SDS011;24606;51.992;4.198;2022-10-26T13:35:20;1.85;;;0.90;;
38853;SDS011;24606;51.992;4.198;2022-10-26T13:40:24;4.57;;;1.00;;
38853;SDS011;24606;51.992;4.198;2022-10-26T13:45:29;3.70;;;1.23;;
38853;SDS011;24606;51.992;4.198;2022-10-26T13:50:36;3.78;;;1.77;;
38853;SDS011;24606;51.992;4.198;2022-10-26T13:55:46;8.25;;;1.25;;
38853;SDS011;24606;51.992;4.198;2022-10-26T14:01:12;3.63;;;1.60;;
38853;SDS011;24606;51.992;4.198;2022-10-26T14:06:19;7.82;;;1.70;;
38853;SDS011;24606;51.992;4.198;2022-10-26T14:11:27;3.80;;;1.05;;
38853;SDS011;24606;51.992;4.198;2022-10-26T14:16:35;6.25;;;1.77;;
38853;SDS011;24606;51.992;4.198;2022-10-26T14:21:38;8.85;;;1.50;;
38853;SDS011;24606;51.992;4.198;2022-10-26T14:26:42;6.03;;;1.77;;
38853;SDS011;24606;51.992;4.198;2022-10-26T14:31:48;3.88;;;1.05;;
38853;SDS011;24606;51.992;4.198;2022-10-26T14:36:51;4.43;;;1.08;;
38853;SDS011;24606;51.992;4.198;2022-10-26T14:41:55;6.50;;;1.67;;
38853;SDS011;24606;51.992;4.198;2022-10-26T14:47:01;5.10;;;1.75;;
38853;SDS011;24606;51.992;4.198;2022-10-26T14:52:03;8.95;;;1.55;;
38853;SDS011;24606;51.992;4.198;2022-10-26T14:57:24;8.35;;;1.33;;
38853;SDS011;24606;51.992;4.198;2022-10-26T15:02:32;6.93;;;1.25;;
38853;SDS011;24606;51.992;4.198;2022-10-26T15:07:35;5.18;;;1.30;;
38853;SDS011;24606;51.992;4.198;2022-10-26T15:12:40;5.82;;;1.40;;
38853;SDS011;24606;51.992;4.198;2022-10-26T15:17:52;7.43;;;1.38;;
38853;SDS011;24606;51.992;4.198;2022-10-26T15:22:56;3.22;;;0.90;;
38853;SDS011;24606;51.992;4.198;2022-10-26T15:28:07;7.72;;;1.08;;
38853;SDS011;24606;51.992;4.198;2022-10-26T15:33:18;8.63;;;2.00;;
38853;SDS011;24606;51.992;4.198;2022-10-26T15:38:21;7.22;;;1.13;;
38853;SDS011;24606;51.992;4.198;2022-10-26T15:43:23;9.43;;;1.65;;
38853;SDS011;24606;51.992;4.198;2022-10-26T15:48:26;9.57;;;1.40;;
38853;SDS011;24606;51.992;4.198;2022-10-26T15:53:31;5.90;;;1.60;;
38853;SDS011;24606;51.992;4.198;2022-10-26T15:58:33;8.50;;;1.60;;
38853;SDS011;24606;51.992;4.198;2022-10-26T16:03:36;6.80;;;1.10;;
38853;SDS011;24606;51.992;4.198;2022-10-26T16:08:38;10.45;;;1.40;;
38853;SDS011;24606;51.992;4.198;2022-10-26T16:13:40;8.27;;;1.48;;
38853;SDS011;24606;51.992;4.198;2022-10-26T16:18:43;13.32;;;1.83;;
38853;SDS011;24606;51.992;4.198;2022-10-26T16:23:46;6.93;;;1.05;;
38853;SDS011;24606;51.992;4.198;2022-10-26T16:28:49;6.72;;;1.27;;
38853;SDS011;24606;51.992;4.198;2022-10-26T16:33:52;12.88;;;1.95;;
38853;SDS011;24606;51.992;4.198;2022-10-26T16:38:54;11.70;;;1.40;;
38853;SDS011;24606;51.992;4.198;2022-10-26T16:43:56;15.38;;;2.17;;
38853;SDS011;24606;51.992;4.198;2022-10-26T16:49:00;16.00;;;2.50;;
38853;SDS011;24606;51.992;4.198;2022-10-26T16:54:02;10.48;;;1.33;;
38853;SDS011;24606;51.992;4.198;2022-10-26T16:59:04;10.30;;;1.85;;
38853;SDS011;24606;51.992;4.198;2022-10-26T17:04:08;5.30;;;1.40;;
38853;SDS011;24606;51.992;4.198;2022-10-26T17:09:10;13.95;;;1.52;;
38853;SDS011;24606;51.992;4.198;2022-10-26T17:14:12;6.03;;;1.33;;
38853;SDS011;24606;51.992;4.198;2022-10-26T17:19:15;14.55;;;1.75;;
38853;SDS011;24606;51.992;4.198;2022-10-26T17:24:17;8.60;;;1.83;;
38853;SDS011;24606;51.992;4.198;2022-10-26T17:29:19;12.18;;;1.50;;
38853;SDS011;24606;51.992;4.198;2022-10-26T17:34:22;6.68;;;1.67;;
38853;SDS011;24606;51.992;4.198;2022-10-26T17:39:25;14.68;;;1.83;;
38853;SDS011;24606;51.992;4.198;2022-10-26T17:44:27;18.17;;;1.83;;
38853;SDS011;24606;51.992;4.198;2022-10-26T17:49:30;6.60;;;1.30;;
38853;SDS011;24606;51.992;4.198;2022-10-26T17:54:32;8.02;;;1.10;;
38853;SDS011;24606;51.992;4.198;2022-10-26T17:59:33;5.68;;;1.02;;
38853;SDS011;24606;51.992;4.198;2022-10-26T18:04:37;3.37;;;0.93;;
38853;SDS011;24606;51.992;4.198;2022-10-26T18:09:39;6.50;;;1.27;;
38853;SDS011;24606;51.992;4.198;2022-10-26T18:14:40;8.38;;;1.67;;
38853;SDS011;24606;51.992;4.198;2022-10-26T18:19:46;8.73;;;1.55;;
38853;SDS011;24606;51.992;4.198;2022-10-26T18:24:48;7.85;;;1.70;;
38853;SDS011;24606;51.992;4.198;2022-10-26T18:29:51;4.65;;;1.30;;
38853;SDS011;24606;51.992;4.198;2022-10-26T18:34:55;11.27;;;2.33;;
38853;SDS011;24606;51.992;4.198;2022-10-26T18:40:01;11.55;;;1.65;;
38853;SDS011;24606;51.992;4.198;2022-10-26T18:50:07;7.90;;;1.70;;
38853;SDS011;24606;51.992;4.198;2022-10-26T18:55:09;9.23;;;1.83;;
38853;SDS011;24606;51.992;4.198;2022-10-26T19:00:12;9.07;;;1.83;;
38853;SDS011;24606;51.992;4.198;2022-10-26T19:05:16;7.38;;;1.60;;
38853;SDS011;24606;51.992;4.198;2022-10-26T19:10:17;13.85;;;2.10;;
38853;SDS011;24606;51.992;4.198;2022-10-26T19:15:19;5.75;;;1.13;;
38853;SDS011;24606;51.992;4.198;2022-10-26T19:20:23;8.60;;;1.48;;
38853;SDS011;24606;51.992;4.198;2022-10-26T19:25:25;6.63;;;1.40;;
38853;SDS011;24606;51.992;4.198;2022-10-26T19:30:27;3.72;;;1.00;;
38853;SDS011;24606;51.992;4.198;2022-10-26T19:35:30;4.05;;;0.80;;
38853;SDS011;24606;51.992;4.198;2022-10-26T19:40:32;7.70;;;0.95;;
38853;SDS011;24606;51.992;4.198;2022-10-26T19:45:34;5.13;;;1.70;;
38853;SDS011;24606;51.992;4.198;2022-10-26T19:50:38;4.38;;;0.68;;
38853;SDS011;24606;51.992;4.198;2022-10-26T19:55:41;5.95;;;1.38;;
38853;SDS011;24606;51.992;4.198;2022-10-26T20:00:43;4.68;;;0.90;;
38853;SDS011;24606;51.992;4.198;2022-10-26T20:05:46;5.55;;;1.20;;
38853;SDS011;24606;51.992;4.198;2022-10-26T20:10:48;6.38;;;1.17;;
38853;SDS011;24606;51.992;4.198;2022-10-26T20:15:50;5.28;;;1.02;;
38853;SDS011;24606;51.992;4.198;2022-10-26T20:20:54;3.20;;;1.23;;
38853;SDS011;24606;51.992;4.198;2022-10-26T20:25:56;5.28;;;1.15;;
38853;SDS011;24606;51.992;4.198;2022-10-26T20:30:59;5.20;;;1.10;;
38853;SDS011;24606;51.992;4.198;2022-10-26T20:36:02;4.03;;;1.20;;
38853;SDS011;24606;51.992;4.198;2022-10-26T20:41:04;6.03;;;1.08;;
38853;SDS011;24606;51.992;4.198;2022-10-26T20:46:10;7.63;;;1.55;;
38853;SDS011;24606;51.992;4.198;2022-10-26T20:51:19;10.27;;;1.85;;
38853;SDS011;24606;51.992;4.198;2022-10-26T20:56:25;5.70;;;1.20;;
38853;SDS011;24606;51.992;4.198;2022-10-26T21:01:27;5.55;;;1.30;;
38853;SDS011;24606;51.992;4.198;2022-10-26T21:06:32;6.18;;;1.17;;
38853;SDS011;24606;51.992;4.198;2022-10-26T21:11:39;7.85;;;1.38;;
38853;SDS011;24606;51.992;4.198;2022-10-26T21:16:41;9.88;;;1.80;;
38853;SDS011;24606;51.992;4.198;2022-10-26T21:21:44;5.18;;;1.77;;
38853;SDS011;24606;51.992;4.198;2022-10-26T21:26:46;7.28;;;1.17;;
38853;SDS011;24606;51.992;4.198;2022-10-26T21:36:51;8.90;;;1.60;;
38853;SDS011;24606;51.992;4.198;2022-10-26T21:41:53;9.52;;;1.20;;
38853;SDS011;24606;51.992;4.198;2022-10-26T21:46:55;8.77;;;1.38;;
38853;SDS011;24606;51.992;4.198;2022-10-26T21:51:58;5.50;;;1.83;;
38853;SDS011;24606;51.992;4.198;2022-10-26T21:57:00;15.13;;;1.58;;
38853;SDS011;24606;51.992;4.198;2022-10-26T22:02:02;7.78;;;1.30;;
38853;SDS011;24606;51.992;4.198;2022-10-26T22:07:05;10.68;;;1.77;;
38853;SDS011;24606;51.992;4.198;2022-10-26T22:12:07;7.55;;;1.60;;
38853;SDS011;24606;51.992;4.198;2022-10-26T22:17:09;5.25;;;1.17;;
38853;SDS011;24606;51.992;4.198;2022-10-26T22:22:13;6.63;;;1.15;;
38853;SDS011;24606;51.992;4.198;2022-10-26T22:27:15;5.38;;;1.70;;
38853;SDS011;24606;51.992;4.198;2022-10-26T22:32:17;7.15;;;1.17;;
38853;SDS011;24606;51.992;4.198;2022-10-26T22:37:20;5.68;;;1.08;;
38853;SDS011;24606;51.992;4.198;2022-10-26T22:42:22;9.68;;;1.98;;
38853;SDS011;24606;51.992;4.198;2022-10-26T22:47:23;8.38;;;1.35;;
38853;SDS011;24606;51.992;4.198;2022-10-26T22:52:26;9.90;;;1.60;;
38853;SDS011;24606;51.992;4.198;2022-10-26T22:57:28;6.93;;;1.30;;
38853;SDS011;24606;51.992;4.198;2022-10-26T23:02:30;9.65;;;2.67;;
38853;SDS011;24606;51.992;4.198;2022-10-26T23:07:33;9.20;;;2.28;;
38853;SDS011;24606;51.992;4.198;2022-10-26T23:12:35;6.35;;;1.27;;
38853;SDS011;24606;51.992;4.198;2022-10-26T23:17:37;9.30;;;1.77;;
38853;SDS011;24606;51.992;4.198;2022-10-26T23:22:40;4.68;;;1.23;;
38853;SDS011;24606;51.992;4.198;2022-10-26T23:27:42;4.15;;;1.13;;
38853;SDS011;24606;51.992;4.198;2022-10-26T23:32:44;4.47;;;1.55;;
38853;SDS011;24606;51.992;4.198;2022-10-26T23:37:47;5.00;;;1.08;;
38853;SDS011;24606;51.992;4.198;2022-10-26T23:42:49;3.10;;;0.90;;
38853;SDS011;24606;51.992;4.198;2022-10-26T23:47:51;8.50;;;1.77;;
38853;SDS011;24606;51.992;4.198;2022-10-26T23:52:54;3.63;;;1.30;;
38853;SDS011;24606;51.992;4.198;2022-10-26T23:57:56;5.28;;;1.10;;
